createdAt,value
2019-04-07T00:02:21.483Z,11.00
2019-04-07T00:04:51.040Z,11.00
2019-04-07T00:07:20.405Z,11.10
2019-04-07T00:09:50.317Z,11.10
2019-04-07T00:12:19.808Z,11.10
2019-04-07T00:14:49.110Z,11.10
2019-04-07T00:17:21.211Z,11.10
2019-04-07T00:19:50.681Z,11.10
2019-04-07T00:22:20.001Z,11.20
2019-04-07T00:24:55.916Z,11.20
2019-04-07T00:27:33.522Z,11.20
2019-04-07T00:30:07.637Z,11.20
2019-04-07T00:32:36.928Z,11.20
2019-04-07T00:35:06.303Z,11.30
2019-04-07T00:37:36.237Z,11.30
2019-04-07T00:40:06.914Z,11.30
2019-04-07T00:42:36.359Z,11.30
2019-04-07T00:45:06.238Z,11.30
2019-04-07T00:47:36.081Z,11.30
2019-04-07T00:50:05.621Z,11.40
2019-04-07T00:52:34.997Z,11.40
2019-04-07T00:55:06.836Z,11.40
2019-04-07T00:57:36.311Z,11.50
2019-04-07T01:00:07.678Z,11.60
2019-04-07T01:02:39.852Z,11.60
2019-04-07T01:05:09.493Z,11.60
2019-04-07T01:07:38.882Z,11.60
2019-04-07T01:10:08.753Z,11.60
2019-04-07T01:12:38.570Z,11.60
2019-04-07T01:15:07.948Z,11.70
2019-04-07T01:17:37.244Z,11.70
2019-04-07T01:20:07.352Z,11.70
2019-04-07T01:22:37.247Z,11.70
2019-04-07T01:25:07.198Z,11.70
2019-04-07T01:27:36.665Z,11.60
2019-04-07T01:30:06.368Z,11.60
2019-04-07T01:32:35.707Z,11.60
2019-04-07T01:35:05.744Z,11.60
2019-04-07T01:37:35.311Z,11.50
2019-04-07T01:40:05.680Z,11.60
2019-04-07T01:42:44.380Z,11.50
2019-04-07T01:45:42.279Z,11.50
2019-04-07T01:48:27.150Z,11.50
2019-04-07T01:51:24.628Z,11.50
2019-04-07T01:54:16.337Z,11.50
2019-04-07T01:56:55.596Z,11.50
2019-04-07T01:59:49.678Z,11.50
2019-04-07T02:02:29.222Z,11.50
2019-04-07T02:05:06.721Z,11.40
2019-04-07T02:07:52.368Z,11.40
2019-04-07T02:10:39.517Z,11.40
2019-04-07T02:13:28.880Z,11.40
2019-04-07T02:16:14.815Z,11.40
2019-04-07T02:18:55.407Z,11.30
2019-04-07T02:21:29.611Z,11.40
2019-04-07T02:24:24.544Z,11.30
2019-04-07T02:27:06.771Z,11.30
2019-04-07T02:30:01.857Z,11.30
2019-04-07T02:33:00.070Z,11.20
2019-04-07T02:35:56.043Z,11.20
2019-04-07T02:38:39.973Z,11.20
2019-04-07T02:41:30.956Z,11.20
2019-04-07T02:44:17.926Z,11.20
2019-04-07T02:47:00.777Z,11.10
2019-04-07T02:49:56.189Z,11.10
2019-04-07T02:52:51.355Z,11.10
2019-04-07T02:55:33.559Z,11.10
2019-04-07T02:58:19.258Z,11.00
2019-04-07T03:01:04.067Z,11.00
2019-04-07T03:03:48.776Z,11.00
2019-04-07T03:06:37.706Z,11.00
2019-04-07T03:09:06.376Z,11.00
2019-04-07T03:11:42.668Z,11.00
2019-04-07T03:14:43.427Z,10.90
2019-04-07T03:17:31.842Z,10.90
2019-04-07T03:20:20.068Z,10.90
2019-04-07T03:23:13.137Z,10.90
2019-04-07T03:26:00.864Z,10.80
2019-04-07T03:28:45.413Z,10.80
2019-04-07T03:31:44.073Z,10.80
2019-04-07T03:34:32.881Z,10.80
2019-04-07T03:37:22.947Z,10.80
2019-04-07T03:40:02.559Z,10.70
2019-04-07T03:43:00.068Z,10.70
2019-04-07T03:45:38.193Z,10.60
2019-04-07T03:48:16.290Z,10.60
2019-04-07T03:51:01.509Z,10.60
2019-04-07T03:53:59.445Z,10.60
2019-04-07T03:56:47.702Z,10.50
2019-04-07T03:59:38.918Z,10.50
2019-04-07T04:02:33.320Z,10.50
2019-04-07T04:05:27.372Z,10.50
2019-04-07T04:08:04.069Z,10.50
2019-04-07T04:10:55.692Z,10.50
2019-04-07T04:13:51.039Z,10.50
2019-04-07T04:16:25.769Z,10.50
2019-04-07T04:18:55.115Z,10.60
2019-04-07T04:21:24.416Z,10.60
2019-04-07T04:23:53.648Z,10.60
2019-04-07T04:26:23.716Z,10.60
2019-04-07T04:28:53.240Z,10.60
2019-04-07T04:31:22.492Z,10.60
2019-04-07T04:33:51.831Z,10.60
2019-04-07T04:36:22.056Z,10.60
2019-04-07T04:38:52.438Z,10.60
2019-04-07T04:41:23.141Z,10.60
2019-04-07T04:43:53.435Z,10.60
2019-04-07T04:46:23.644Z,10.60
2019-04-07T04:48:53.129Z,10.60
2019-04-07T04:51:22.338Z,10.60
2019-04-07T04:53:51.765Z,10.60
2019-04-07T04:56:22.753Z,10.60
2019-04-07T04:58:53.143Z,10.70
2019-04-07T05:01:23.035Z,10.70
2019-04-07T05:03:52.544Z,10.70
2019-04-07T05:06:21.893Z,10.80
2019-04-07T05:08:51.221Z,10.80
2019-04-07T05:11:21.171Z,10.80
2019-04-07T05:13:50.502Z,10.80
2019-04-07T05:16:19.801Z,10.80
2019-04-07T05:18:49.187Z,10.80
2019-04-07T05:21:18.589Z,10.90
2019-04-07T05:23:48.056Z,10.90
2019-04-07T05:26:17.977Z,10.90
2019-04-07T05:28:47.241Z,11.00
2019-04-07T05:31:16.491Z,11.00
2019-04-07T05:33:46.442Z,11.10
2019-04-07T05:36:15.870Z,11.10
2019-04-07T05:38:45.514Z,11.10
2019-04-07T05:41:14.967Z,11.20
2019-04-07T05:43:44.773Z,11.30
2019-04-07T05:46:14.002Z,11.30
2019-04-07T05:48:43.619Z,11.40
2019-04-07T05:51:13.396Z,11.30
2019-04-07T05:53:46.464Z,11.40
2019-04-07T05:56:13.669Z,11.50
2019-04-07T05:58:43.809Z,11.50
2019-04-07T06:01:14.008Z,11.60
2019-04-07T06:03:43.633Z,11.60
2019-04-07T06:06:13.476Z,11.50
2019-04-07T06:08:42.860Z,11.60
2019-04-07T06:11:13.591Z,11.60
2019-04-07T06:13:44.622Z,11.70
2019-04-07T06:16:14.064Z,11.60
2019-04-07T06:18:44.443Z,11.60
2019-04-07T06:21:15.317Z,11.60
2019-04-07T06:23:45.366Z,11.60
2019-04-07T06:26:15.090Z,11.60
2019-04-07T06:28:48.480Z,11.70
2019-04-07T06:31:15.377Z,11.80
2019-04-07T06:33:44.675Z,11.90
2019-04-07T06:36:17.507Z,12.00
2019-04-07T06:38:49.830Z,12.10
2019-04-07T06:41:16.151Z,12.10
2019-04-07T06:43:45.448Z,12.10
2019-04-07T06:46:36.879Z,12.00
2019-04-07T06:49:27.834Z,12.00
2019-04-07T06:52:07.441Z,12.00
2019-04-07T06:55:07.737Z,12.10
2019-04-07T06:57:59.222Z,12.10
2019-04-07T07:00:46.200Z,12.20
2019-04-07T07:03:35.863Z,12.20
2019-04-07T07:06:21.980Z,12.30
2019-04-07T07:09:19.308Z,12.30
2019-04-07T07:12:22.434Z,12.30
2019-04-07T07:15:10.052Z,12.30
2019-04-07T07:17:48.622Z,12.40
2019-04-07T07:20:30.208Z,12.50
2019-04-07T07:23:05.901Z,12.50
2019-04-07T07:25:35.236Z,12.50
2019-04-07T07:28:04.529Z,12.60
2019-04-07T07:30:33.777Z,12.80
2019-04-07T07:33:07.352Z,12.70
2019-04-07T07:35:34.335Z,12.70
2019-04-07T07:38:03.793Z,12.60
2019-04-07T07:40:34.938Z,12.80
2019-04-07T07:43:04.422Z,12.80
2019-04-07T07:45:33.701Z,12.90
2019-04-07T07:48:03.135Z,13.00
2019-04-07T07:50:36.760Z,13.00
2019-04-07T07:53:03.622Z,13.00
2019-04-07T07:55:35.971Z,13.10
2019-04-07T07:58:04.052Z,13.20
2019-04-07T08:00:34.511Z,13.30
2019-04-07T08:03:04.862Z,13.30
2019-04-07T08:05:34.681Z,13.30
2019-04-07T08:08:05.836Z,13.40
2019-04-07T08:10:35.226Z,13.50
2019-04-07T08:13:07.723Z,13.50
2019-04-07T08:15:36.152Z,13.50
2019-04-07T08:18:07.615Z,13.50
2019-04-07T08:20:36.425Z,13.60
2019-04-07T08:23:05.818Z,13.70
2019-04-07T08:25:37.844Z,13.90
2019-04-07T08:28:07.100Z,14.00
2019-04-07T08:30:37.158Z,14.20
2019-04-07T08:33:07.273Z,14.40
2019-04-07T08:35:39.486Z,14.50
2019-04-07T08:38:11.058Z,14.60
2019-04-07T08:40:40.526Z,14.50
2019-04-07T08:43:09.849Z,14.40
2019-04-07T08:45:39.802Z,14.60
2019-04-07T08:48:09.162Z,14.70
2019-04-07T08:50:38.394Z,14.70
2019-04-07T08:53:10.330Z,14.80
2019-04-07T08:55:40.533Z,14.90
2019-04-07T08:58:09.954Z,14.90
2019-04-07T09:00:46.315Z,14.80
2019-04-07T09:03:15.868Z,14.80
2019-04-07T09:05:45.493Z,15.00
2019-04-07T09:08:15.052Z,15.00
2019-04-07T09:10:49.534Z,15.00
2019-04-07T09:13:33.163Z,15.00
2019-04-07T09:16:20.021Z,15.00
2019-04-07T09:19:08.385Z,15.10
2019-04-07T09:22:09.530Z,15.10
2019-04-07T09:24:53.203Z,15.20
2019-04-07T09:27:46.033Z,15.40
2019-04-07T09:30:26.286Z,15.50
2019-04-07T09:33:18.107Z,15.60
2019-04-07T09:36:01.533Z,15.60
2019-04-07T09:39:03.848Z,15.70
2019-04-07T09:41:43.133Z,15.80
2019-04-07T09:44:30.882Z,15.80
2019-04-07T09:47:23.706Z,15.80
2019-04-07T09:50:16.291Z,15.80
2019-04-07T09:53:04.769Z,15.90
2019-04-07T09:55:55.365Z,16.00
2019-04-07T09:58:43.604Z,16.20
2019-04-07T10:01:31.856Z,16.20
2019-04-07T10:04:08.778Z,16.20
2019-04-07T10:07:00.065Z,16.40
2019-04-07T10:09:48.390Z,16.40
2019-04-07T10:12:40.408Z,16.50
2019-04-07T10:15:44.271Z,16.50
2019-04-07T10:18:41.666Z,16.50
2019-04-07T10:21:28.145Z,16.60
2019-04-07T10:24:15.324Z,16.40
2019-04-07T10:27:12.650Z,16.40
2019-04-07T10:29:50.301Z,16.50
2019-04-07T10:32:39.527Z,16.60
2019-04-07T10:35:27.056Z,16.60
2019-04-07T10:38:15.425Z,16.60
2019-04-07T10:41:12.920Z,16.70
2019-04-07T10:44:01.562Z,16.80
2019-04-07T10:46:39.510Z,16.80
2019-04-07T10:49:30.627Z,16.90
2019-04-07T10:52:09.276Z,16.90
2019-04-07T10:54:43.873Z,17.10
2019-04-07T10:57:40.149Z,17.10
2019-04-07T11:00:26.543Z,17.20
2019-04-07T11:03:21.272Z,17.40
2019-04-07T11:06:02.712Z,17.40
2019-04-07T11:08:53.843Z,17.50
2019-04-07T11:11:43.817Z,17.60
2019-04-07T11:14:35.162Z,17.50
2019-04-07T11:17:27.258Z,17.70
2019-04-07T11:20:19.352Z,17.70
2019-04-07T11:23:13.861Z,17.80
2019-04-07T11:26:05.804Z,18.00
2019-04-07T11:28:46.861Z,17.90
2019-04-07T11:31:24.286Z,18.00
2019-04-07T11:34:00.856Z,18.10
2019-04-07T11:36:49.850Z,18.10
2019-04-07T11:39:26.367Z,18.10
2019-04-07T11:42:15.279Z,18.10
2019-04-07T11:45:00.206Z,18.10
2019-04-07T11:47:58.052Z,18.10
2019-04-07T11:50:41.906Z,18.20
2019-04-07T11:53:19.962Z,18.40
2019-04-07T11:55:58.707Z,18.40
2019-04-07T11:58:49.861Z,18.50
2019-04-07T12:01:50.982Z,18.50
2019-04-07T12:04:42.270Z,18.40
2019-04-07T12:07:29.253Z,18.70
2019-04-07T12:10:15.864Z,18.90
2019-04-07T12:13:03.688Z,18.80
2019-04-07T12:15:50.887Z,18.90
2019-04-07T12:18:54.548Z,19.00
2019-04-07T12:21:35.436Z,19.00
2019-04-07T12:24:24.634Z,19.00
2019-04-07T12:27:11.657Z,19.10
2019-04-07T12:30:00.143Z,19.10
2019-04-07T12:32:37.981Z,19.00
2019-04-07T12:35:41.588Z,18.90
2019-04-07T12:38:27.421Z,19.00
2019-04-07T12:41:32.027Z,19.20
2019-04-07T12:44:21.698Z,19.40
2019-04-07T12:47:10.235Z,19.50
2019-04-07T12:49:57.298Z,19.30
2019-04-07T12:52:46.269Z,19.30
2019-04-07T12:55:30.524Z,19.40
2019-04-07T12:58:17.053Z,19.30
2019-04-07T13:01:19.777Z,19.30
2019-04-07T13:04:06.043Z,19.50
2019-04-07T13:06:45.205Z,19.40
2019-04-07T13:09:33.106Z,19.40
2019-04-07T13:12:34.303Z,19.40
2019-04-07T13:15:26.302Z,19.50
2019-04-07T13:18:13.531Z,19.40
2019-04-07T13:21:02.213Z,19.40
2019-04-07T13:23:38.470Z,19.30
2019-04-07T13:26:19.674Z,19.30
2019-04-07T13:29:14.619Z,19.30
2019-04-07T13:31:58.176Z,19.40
2019-04-07T13:34:46.757Z,19.40
2019-04-07T13:37:23.432Z,19.50
2019-04-07T13:40:12.963Z,19.50
2019-04-07T13:43:13.370Z,19.50
2019-04-07T13:46:17.588Z,19.50
2019-04-07T13:48:51.619Z,19.40
2019-04-07T13:51:36.661Z,19.50
2019-04-07T13:54:20.097Z,19.50
2019-04-07T13:57:25.894Z,19.50
2019-04-07T14:00:16.887Z,19.50
2019-04-07T14:03:05.881Z,19.50
2019-04-07T14:05:54.617Z,19.60
2019-04-07T14:08:45.965Z,19.70
2019-04-07T14:11:32.969Z,19.80
2019-04-07T14:14:29.201Z,19.70
2019-04-07T14:17:11.526Z,19.80
2019-04-07T14:19:48.803Z,20.00
2019-04-07T14:22:38.866Z,20.20
2019-04-07T14:25:26.710Z,20.20
2019-04-07T14:28:09.966Z,20.30
2019-04-07T14:30:59.839Z,20.40
2019-04-07T14:33:49.094Z,20.40
2019-04-07T14:36:42.721Z,20.40
2019-04-07T14:39:33.911Z,20.40
2019-04-07T14:42:10.060Z,20.30
2019-04-07T14:44:52.247Z,20.20
2019-04-07T14:47:30.385Z,20.20
2019-04-07T14:50:23.169Z,20.20
2019-04-07T14:53:12.089Z,20.30
2019-04-07T14:55:51.371Z,20.20
2019-04-07T14:58:58.415Z,20.10
2019-04-07T15:01:36.834Z,20.10
2019-04-07T15:04:06.447Z,20.00
2019-04-07T15:06:36.595Z,20.10
2019-04-07T15:09:17.622Z,20.20
2019-04-07T15:11:58.774Z,20.10
2019-04-07T15:14:31.469Z,20.10
2019-04-07T15:16:59.223Z,20.10
2019-04-07T15:19:28.844Z,20.20
2019-04-07T15:21:59.833Z,20.20
2019-04-07T15:24:29.537Z,20.20
2019-04-07T15:26:59.310Z,20.30
2019-04-07T15:29:28.885Z,20.40
2019-04-07T15:31:58.604Z,20.30
2019-04-07T15:34:28.558Z,20.40
2019-04-07T15:36:57.950Z,20.20
2019-04-07T15:39:29.613Z,20.10
2019-04-07T15:41:58.127Z,20.00
2019-04-07T15:44:27.378Z,19.90
2019-04-07T15:46:57.472Z,19.90
2019-04-07T15:49:28.317Z,19.90
2019-04-07T15:51:58.046Z,19.90
2019-04-07T15:54:27.507Z,20.00
2019-04-07T15:56:58.582Z,20.00
2019-04-07T15:59:29.731Z,20.00
2019-04-07T16:01:58.718Z,20.00
2019-04-07T16:04:29.481Z,20.00
2019-04-07T16:07:00.136Z,19.90
2019-04-07T16:09:38.420Z,19.90
2019-04-07T16:12:00.603Z,19.90
2019-04-07T16:14:30.887Z,19.90
2019-04-07T16:17:03.886Z,20.00
2019-04-07T16:19:38.852Z,19.90
2019-04-07T16:22:04.295Z,19.90
2019-04-07T16:24:34.692Z,19.90
2019-04-07T16:27:05.742Z,20.00
2019-04-07T16:29:35.113Z,20.00
2019-04-07T16:32:08.135Z,19.90
2019-04-07T16:34:39.044Z,19.90
2019-04-07T16:37:09.425Z,19.90
2019-04-07T16:39:41.386Z,19.90
2019-04-07T16:42:10.822Z,19.90
2019-04-07T16:44:43.906Z,19.80
2019-04-07T16:47:19.309Z,19.80
2019-04-07T16:49:47.381Z,19.80
2019-04-07T16:52:13.535Z,19.80
2019-04-07T16:54:44.614Z,19.80
2019-04-07T16:57:13.809Z,19.70
2019-04-07T16:59:43.620Z,19.80
2019-04-07T17:02:14.502Z,19.80
2019-04-07T17:04:43.873Z,19.80
2019-04-07T17:07:15.655Z,19.90
2019-04-07T17:09:44.679Z,19.80
2019-04-07T17:12:14.940Z,19.80
2019-04-07T17:14:44.826Z,19.70
2019-04-07T17:17:18.074Z,19.70
2019-04-07T17:19:45.738Z,19.60
2019-04-07T17:22:16.726Z,19.60
2019-04-07T17:24:46.122Z,19.50
2019-04-07T17:27:16.069Z,19.40
2019-04-07T17:29:45.973Z,19.30
2019-04-07T17:32:16.878Z,19.20
2019-04-07T17:34:46.560Z,19.10
2019-04-07T17:37:18.945Z,19.00
2019-04-07T17:39:57.292Z,18.90
2019-04-07T17:42:28.304Z,18.90
2019-04-07T17:45:10.965Z,18.90
2019-04-07T17:48:09.817Z,18.80
2019-04-07T17:51:08.561Z,18.80
2019-04-07T17:53:52.833Z,18.80
2019-04-07T17:56:41.805Z,18.80
2019-04-07T17:59:38.442Z,18.70
2019-04-07T18:02:16.128Z,18.70
2019-04-07T18:05:13.381Z,18.60
2019-04-07T18:07:58.631Z,18.60
2019-04-07T18:10:50.759Z,18.60
2019-04-07T18:13:49.902Z,18.50
2019-04-07T18:16:35.258Z,18.50
2019-04-07T18:19:27.120Z,18.50
2019-04-07T18:22:13.684Z,18.50
2019-04-07T18:25:02.304Z,18.40
2019-04-07T18:27:47.394Z,18.40
2019-04-07T18:30:42.648Z,18.40
2019-04-07T18:33:30.190Z,18.40
2019-04-07T18:36:13.577Z,18.30
2019-04-07T18:39:04.645Z,18.30
2019-04-07T18:42:10.633Z,18.20
2019-04-07T18:44:56.273Z,18.20
2019-04-07T18:47:42.838Z,18.20
2019-04-07T18:50:30.730Z,18.10
2019-04-07T18:53:17.841Z,18.10
2019-04-07T18:56:15.272Z,18.10
2019-04-07T18:59:02.300Z,18.10
2019-04-07T19:01:53.292Z,18.10
2019-04-07T19:04:50.330Z,17.90
2019-04-07T19:07:30.458Z,17.90
2019-04-07T19:10:25.123Z,17.90
2019-04-07T19:13:15.941Z,17.80
2019-04-07T19:16:01.927Z,17.80
2019-04-07T19:18:59.342Z,17.70
2019-04-07T19:21:47.535Z,17.70
2019-04-07T19:24:25.489Z,17.70
2019-04-07T19:27:17.731Z,17.60
2019-04-07T19:30:05.871Z,17.60
2019-04-07T19:32:55.543Z,17.50
2019-04-07T19:35:49.770Z,17.50
2019-04-07T19:38:41.288Z,17.50
2019-04-07T19:41:33.775Z,17.50
2019-04-07T19:44:18.902Z,17.50
2019-04-07T19:47:01.618Z,17.40
2019-04-07T19:49:54.475Z,17.40
2019-04-07T19:52:41.467Z,17.30
2019-04-07T19:55:35.558Z,17.30
2019-04-07T19:58:17.719Z,17.30
2019-04-07T20:01:15.198Z,17.20
2019-04-07T20:04:02.642Z,17.10
2019-04-07T20:07:01.291Z,17.10
2019-04-07T20:09:45.811Z,17.00
2019-04-07T20:12:38.179Z,16.90
2019-04-07T20:15:36.508Z,16.90
2019-04-07T20:18:24.295Z,16.90
2019-04-07T20:21:15.913Z,16.80
2019-04-07T20:24:10.130Z,16.80
2019-04-07T20:26:56.470Z,16.70
2019-04-07T20:29:51.710Z,16.70
2019-04-07T20:32:39.098Z,16.60
2019-04-07T20:35:38.205Z,16.50
2019-04-07T20:38:32.578Z,16.50
2019-04-07T20:41:25.943Z,16.40
2019-04-07T20:44:01.143Z,16.40
2019-04-07T20:46:43.650Z,16.30
2019-04-07T20:49:32.868Z,16.30
2019-04-07T20:52:22.242Z,16.30
2019-04-07T20:55:08.811Z,16.30
2019-04-07T20:58:10.181Z,16.20
2019-04-07T21:00:55.959Z,16.20
2019-04-07T21:03:45.057Z,16.00
2019-04-07T21:06:29.921Z,16.00
2019-04-07T21:09:35.869Z,15.90
2019-04-07T21:12:25.035Z,15.90
2019-04-07T21:15:21.284Z,15.80
2019-04-07T21:18:02.064Z,15.80
2019-04-07T21:21:11.792Z,15.70
2019-04-07T21:23:59.385Z,15.70
2019-04-07T21:26:45.975Z,15.50
2019-04-07T21:29:35.199Z,15.40
2019-04-07T21:32:33.269Z,15.30
2019-04-07T21:35:19.457Z,15.20
2019-04-07T21:38:20.843Z,15.00
2019-04-07T21:41:12.160Z,14.80
2019-04-07T21:43:48.848Z,14.70
2019-04-07T21:46:30.983Z,14.70
2019-04-07T21:49:07.774Z,14.70
2019-04-07T21:51:49.434Z,14.60
2019-04-07T21:54:39.085Z,14.60
2019-04-07T21:57:36.484Z,14.50
2019-04-07T22:00:20.937Z,14.50
2019-04-07T22:02:59.763Z,14.40
2019-04-07T22:05:37.352Z,14.30
2019-04-07T22:08:17.355Z,14.40
2019-04-07T22:10:49.919Z,14.30
2019-04-07T22:13:16.577Z,14.20
2019-04-07T22:15:49.627Z,14.20
2019-04-07T22:18:17.365Z,14.20
2019-04-07T22:20:47.874Z,14.10
2019-04-07T22:23:17.678Z,14.00
2019-04-07T22:25:50.857Z,14.00
2019-04-07T22:28:20.678Z,14.00
2019-04-07T22:30:50.887Z,13.90
2019-04-07T22:33:23.007Z,13.90
2019-04-07T22:35:51.332Z,13.90
2019-04-07T22:38:23.083Z,14.00
2019-04-07T22:40:52.174Z,14.00
2019-04-07T22:43:21.463Z,13.90
2019-04-07T22:45:58.994Z,13.90
2019-04-07T22:48:25.261Z,13.90
2019-04-07T22:50:53.792Z,13.80
2019-04-07T22:53:27.300Z,13.70
2019-04-07T22:55:55.259Z,13.70
2019-04-07T22:58:24.571Z,13.70
2019-04-07T23:00:54.301Z,13.70
2019-04-07T23:03:23.989Z,13.70
2019-04-07T23:05:53.416Z,13.70
2019-04-07T23:08:22.670Z,13.70
2019-04-07T23:10:51.967Z,13.70
2019-04-07T23:13:21.697Z,13.60
2019-04-07T23:15:51.192Z,13.60
2019-04-07T23:18:20.950Z,13.50
2019-04-07T23:20:50.305Z,13.50
2019-04-07T23:23:19.592Z,13.40
2019-04-07T23:25:48.815Z,13.40
2019-04-07T23:28:18.822Z,13.40
2019-04-07T23:30:49.204Z,13.30
2019-04-07T23:33:18.485Z,13.30
2019-04-07T23:35:47.717Z,13.30
2019-04-07T23:38:16.989Z,13.30
2019-04-07T23:40:46.217Z,13.20
2019-04-07T23:43:15.505Z,13.20
2019-04-07T23:45:44.827Z,13.20
2019-04-07T23:48:14.140Z,13.20
2019-04-07T23:50:43.591Z,13.20
2019-04-07T23:53:49.255Z,13.20
2019-04-07T23:56:18.475Z,13.10
2019-04-07T23:58:47.671Z,13.10
